createdAt,value
2023-05-23T00:00:05.937Z,6.23
2023-05-23T00:02:39.499Z,5.63
2023-05-23T00:05:07.929Z,5.33
2023-05-23T00:07:35.236Z,4.80
2023-05-23T00:10:04.929Z,6.23
2023-05-23T00:12:32.498Z,6.20
2023-05-23T00:14:59.903Z,5.03
2023-05-23T00:17:27.287Z,5.50
2023-05-23T00:19:54.756Z,3.87
2023-05-23T00:22:22.198Z,5.33
2023-05-23T00:24:49.540Z,4.27
2023-05-23T00:27:18.698Z,3.50
2023-05-23T00:29:46.034Z,4.10
2023-05-23T00:32:13.364Z,5.00
2023-05-23T00:34:40.774Z,5.57
2023-05-23T00:37:08.097Z,3.63
2023-05-23T00:39:35.461Z,2.90
2023-05-23T00:42:05.168Z,3.20
2023-05-23T00:44:33.893Z,3.47
2023-05-23T00:47:01.624Z,3.23
2023-05-23T00:49:29.580Z,2.63
2023-05-23T00:51:56.916Z,3.23
2023-05-23T00:54:28.448Z,2.60
2023-05-23T00:56:55.925Z,3.70
2023-05-23T00:59:24.934Z,2.43
2023-05-23T01:01:55.907Z,2.30
2023-05-23T01:04:23.723Z,3.07
2023-05-23T01:06:51.147Z,3.23
2023-05-23T01:09:19.440Z,3.17
2023-05-23T01:11:56.698Z,2.70
2023-05-23T01:14:32.491Z,3.00
2023-05-23T01:17:10.974Z,2.30
2023-05-23T01:19:56.020Z,2.80
2023-05-23T01:22:33.308Z,3.07
2023-05-23T01:25:10.836Z,3.40
2023-05-23T01:27:48.323Z,2.93
2023-05-23T01:30:18.836Z,4.33
2023-05-23T01:32:50.688Z,2.53
2023-05-23T01:35:22.406Z,3.50
2023-05-23T01:37:51.398Z,3.67
2023-05-23T01:40:18.722Z,3.60
2023-05-23T01:42:47.999Z,3.30
2023-05-23T01:45:16.391Z,3.23
2023-05-23T01:47:44.530Z,3.03
2023-05-23T01:50:12.423Z,3.33
2023-05-23T01:52:40.092Z,2.93
2023-05-23T01:55:09.410Z,2.10
2023-05-23T01:57:38.505Z,3.27
2023-05-23T02:00:08.920Z,4.00
2023-05-23T02:02:42.590Z,3.80
2023-05-23T02:05:10.798Z,3.50
2023-05-23T02:07:38.109Z,4.07
2023-05-23T02:10:09.015Z,2.90
2023-05-23T02:12:36.434Z,2.90
2023-05-23T02:15:04.285Z,4.40
2023-05-23T02:17:33.339Z,3.60
2023-05-23T02:20:00.694Z,2.83
2023-05-23T02:22:28.069Z,4.10
2023-05-23T02:24:55.457Z,6.13
2023-05-23T02:27:23.892Z,4.70
2023-05-23T02:29:51.261Z,3.67
2023-05-23T02:32:18.600Z,4.70
2023-05-23T02:34:47.227Z,5.17
2023-05-23T02:37:14.644Z,4.30
2023-05-23T02:39:42.949Z,4.63
2023-05-23T02:42:10.372Z,5.33
2023-05-23T02:44:37.932Z,5.43
2023-05-23T02:47:05.713Z,5.63
2023-05-23T02:49:34.351Z,5.00
2023-05-23T02:52:03.044Z,4.47
2023-05-23T02:54:30.409Z,6.40
2023-05-23T02:56:57.777Z,7.00
2023-05-23T02:59:25.301Z,5.70
2023-05-23T03:01:52.725Z,4.83
2023-05-23T03:04:20.059Z,7.30
2023-05-23T03:06:47.408Z,5.67
2023-05-23T03:09:16.505Z,6.53
2023-05-23T03:11:43.918Z,5.93
2023-05-23T03:14:12.271Z,6.60
2023-05-23T03:16:40.298Z,7.47
2023-05-23T03:19:08.281Z,6.00
2023-05-23T03:21:35.976Z,6.13
2023-05-23T03:24:03.514Z,5.53
2023-05-23T03:26:32.511Z,8.77
2023-05-23T03:28:59.817Z,8.90
2023-05-23T03:31:27.141Z,9.83
2023-05-23T03:33:54.801Z,7.47
2023-05-23T03:36:22.268Z,8.90
2023-05-23T03:38:49.647Z,9.70
2023-05-23T03:41:17.496Z,10.17
2023-05-23T03:43:46.515Z,5.23
2023-05-23T03:46:14.078Z,10.90
2023-05-23T03:48:42.247Z,8.50
2023-05-23T03:51:09.684Z,7.30
2023-05-23T03:53:37.284Z,9.90
2023-05-23T03:56:05.620Z,11.63
2023-05-23T03:58:33.013Z,8.67
2023-05-23T04:01:06.997Z,11.00
2023-05-23T04:03:34.600Z,9.73
2023-05-23T04:06:04.314Z,8.70
2023-05-23T04:08:32.209Z,6.80
2023-05-23T04:11:00.236Z,8.17
2023-05-23T04:13:28.343Z,6.43
2023-05-23T04:15:55.718Z,8.00
2023-05-23T04:18:24.567Z,6.60
2023-05-23T04:20:52.044Z,5.53
2023-05-23T04:23:19.809Z,7.20
2023-05-23T04:25:52.220Z,6.77
2023-05-23T04:28:26.385Z,6.87
2023-05-23T04:30:54.038Z,4.50
2023-05-23T04:33:26.340Z,5.07
2023-05-23T04:35:53.737Z,4.40
2023-05-23T04:38:21.046Z,6.17
2023-05-23T04:40:48.899Z,5.23
2023-05-23T04:43:36.276Z,6.00
2023-05-23T04:46:15.323Z,5.47
2023-05-23T04:48:46.126Z,5.93
2023-05-23T04:51:16.817Z,5.20
2023-05-23T04:53:52.347Z,5.47
2023-05-23T04:56:21.851Z,5.63
2023-05-23T04:58:49.719Z,4.30
2023-05-23T05:01:17.893Z,5.50
2023-05-23T05:03:47.054Z,6.30
2023-05-23T05:06:14.694Z,4.27
2023-05-23T05:08:42.787Z,4.33
2023-05-23T05:11:11.235Z,3.50
2023-05-23T05:13:39.130Z,6.00
2023-05-23T05:16:07.069Z,4.37
2023-05-23T05:18:36.160Z,6.07
2023-05-23T05:21:04.968Z,4.70
2023-05-23T05:23:32.276Z,3.83
2023-05-23T05:26:00.457Z,3.57
2023-05-23T05:28:28.207Z,4.27
2023-05-23T05:30:55.779Z,6.27
2023-05-23T05:33:23.821Z,7.27
2023-05-23T05:35:57.422Z,3.73
2023-05-23T05:38:26.104Z,10.57
2023-05-23T05:40:53.462Z,3.93
2023-05-23T05:43:21.958Z,4.30
2023-05-23T05:45:49.313Z,4.97
2023-05-23T05:48:16.693Z,3.80
2023-05-23T05:50:44.496Z,6.17
2023-05-23T05:53:12.142Z,6.53
2023-05-23T05:55:41.226Z,3.33
2023-05-23T05:58:08.600Z,2.50
2023-05-23T06:00:56.312Z,3.80
2023-05-23T06:03:23.802Z,2.83
2023-05-23T06:05:55.790Z,3.23
2023-05-23T06:08:23.567Z,2.57
2023-05-23T06:10:52.429Z,3.40
2023-05-23T06:13:19.964Z,3.23
2023-05-23T06:15:52.295Z,3.27
2023-05-23T06:18:20.039Z,3.83
2023-05-23T06:20:47.826Z,2.20
2023-05-23T06:23:17.135Z,2.70
2023-05-23T06:25:45.988Z,1.93
2023-05-23T06:28:14.887Z,1.80
2023-05-23T06:30:42.422Z,1.60
2023-05-23T06:33:10.406Z,1.80
2023-05-23T06:35:37.732Z,1.87
2023-05-23T06:38:05.171Z,2.87
2023-05-23T06:40:32.560Z,3.10
2023-05-23T06:42:59.974Z,2.00
2023-05-23T06:45:40.142Z,2.00
2023-05-23T06:48:07.644Z,2.90
2023-05-23T06:50:37.055Z,2.30
2023-05-23T06:53:04.894Z,1.33
2023-05-23T06:55:33.486Z,2.90
2023-05-23T06:58:01.321Z,3.80
2023-05-23T07:00:28.991Z,1.80
2023-05-23T07:03:08.411Z,1.47
2023-05-23T07:05:37.019Z,1.97
2023-05-23T07:08:05.916Z,3.37
2023-05-23T07:10:33.366Z,2.13
2023-05-23T07:13:06.628Z,1.27
2023-05-23T07:15:34.248Z,0.70
2023-05-23T07:18:10.143Z,1.70
2023-05-23T07:20:38.017Z,2.97
2023-05-23T07:23:13.287Z,1.40
2023-05-23T07:25:47.069Z,1.33
2023-05-23T07:28:27.105Z,0.80
2023-05-23T07:30:55.822Z,0.93
2023-05-23T07:33:24.641Z,0.90
2023-05-23T07:35:53.864Z,1.60
2023-05-23T07:38:21.251Z,1.20
2023-05-23T07:40:58.888Z,1.67
2023-05-23T07:43:34.951Z,2.10
2023-05-23T07:46:02.452Z,1.03
2023-05-23T07:48:31.211Z,1.87
2023-05-23T07:50:59.849Z,2.23
2023-05-23T07:53:27.646Z,0.90
2023-05-23T07:56:00.927Z,1.23
2023-05-23T07:58:36.855Z,1.73
2023-05-23T08:01:04.196Z,1.53
2023-05-23T08:03:51.342Z,1.17
2023-05-23T08:06:25.150Z,0.83
2023-05-23T08:08:53.002Z,1.37
2023-05-23T08:11:20.311Z,0.57
2023-05-23T08:13:51.223Z,1.07
2023-05-23T08:16:37.283Z,0.80
2023-05-23T08:19:09.314Z,1.07
2023-05-23T08:21:36.614Z,0.93
2023-05-23T08:24:04.188Z,2.07
2023-05-23T08:26:32.040Z,0.80
2023-05-23T08:28:59.345Z,1.00
2023-05-23T08:31:26.754Z,1.60
2023-05-23T08:33:54.603Z,1.70
2023-05-23T08:36:23.443Z,0.83
2023-05-23T08:38:51.393Z,0.87
2023-05-23T08:41:25.759Z,1.10
2023-05-23T08:43:58.824Z,0.77
2023-05-23T08:46:32.229Z,1.23
2023-05-23T08:49:00.425Z,1.37
2023-05-23T08:51:31.922Z,1.87
2023-05-23T08:54:04.144Z,0.50
2023-05-23T08:56:31.794Z,0.70
2023-05-23T08:58:59.219Z,0.50
2023-05-23T09:01:28.021Z,1.27
2023-05-23T09:03:57.866Z,1.40
2023-05-23T09:06:30.910Z,0.80
2023-05-23T09:08:58.891Z,1.17
2023-05-23T09:11:26.726Z,1.20
2023-05-23T09:13:54.123Z,0.77
2023-05-23T09:16:23.025Z,1.00
2023-05-23T09:18:57.303Z,1.73
2023-05-23T09:21:25.794Z,0.70
2023-05-23T09:24:07.354Z,1.53
2023-05-23T09:26:35.219Z,1.10
2023-05-23T09:29:05.929Z,1.00
2023-05-23T09:31:33.728Z,1.20
2023-05-23T09:34:03.686Z,0.97
2023-05-23T09:36:31.470Z,0.87
2023-05-23T09:39:03.276Z,1.27
2023-05-23T09:41:33.840Z,1.90
2023-05-23T09:44:06.036Z,1.50
2023-05-23T09:46:35.932Z,1.03
2023-05-23T09:49:14.964Z,0.70
2023-05-23T09:51:42.406Z,0.83
2023-05-23T09:54:09.859Z,0.90
2023-05-23T09:56:40.561Z,0.87
2023-05-23T09:59:09.247Z,1.37
2023-05-23T10:01:37.104Z,2.30
2023-05-23T10:04:05.522Z,1.37
2023-05-23T10:06:49.324Z,1.37
2023-05-23T10:09:18.827Z,0.70
2023-05-23T10:12:45.132Z,1.63
2023-05-23T10:15:15.048Z,1.77
2023-05-23T10:18:05.932Z,0.93
2023-05-23T10:20:36.078Z,1.20
2023-05-23T10:23:03.414Z,1.33
2023-05-23T10:25:30.886Z,3.27
2023-05-23T10:28:02.339Z,1.43
2023-05-23T10:30:34.342Z,0.73
2023-05-23T10:33:03.187Z,0.80
2023-05-23T10:35:42.478Z,1.63
2023-05-23T10:38:21.905Z,1.07
2023-05-23T10:40:55.121Z,1.47
2023-05-23T10:43:29.877Z,1.20
2023-05-23T10:45:57.291Z,0.90
2023-05-23T10:48:33.293Z,0.50
2023-05-23T10:51:05.089Z,0.63
2023-05-23T10:53:34.406Z,0.77
2023-05-23T10:56:04.348Z,1.20
2023-05-23T10:58:34.196Z,1.37
2023-05-23T11:01:04.815Z,0.87
2023-05-23T11:03:34.112Z,0.80
2023-05-23T11:06:02.041Z,1.03
2023-05-23T11:08:46.922Z,1.83
2023-05-23T11:11:16.085Z,1.33
2023-05-23T11:13:58.950Z,1.27
2023-05-23T11:16:31.302Z,1.27
2023-05-23T11:19:24.263Z,1.07
2023-05-23T11:21:54.333Z,2.10
2023-05-23T11:24:22.270Z,1.10
2023-05-23T11:26:54.062Z,0.90
2023-05-23T11:29:22.930Z,1.30
2023-05-23T11:31:50.198Z,0.97
2023-05-23T11:34:18.371Z,1.40
2023-05-23T11:36:45.815Z,1.00
2023-05-23T11:39:13.996Z,1.30
2023-05-23T11:41:42.091Z,1.37
2023-05-23T11:44:12.618Z,1.00
2023-05-23T11:46:41.348Z,0.80
2023-05-23T11:49:12.094Z,1.10
2023-05-23T11:51:39.469Z,1.13
2023-05-23T11:54:06.805Z,0.93
2023-05-23T11:56:40.020Z,0.83
2023-05-23T11:59:07.343Z,1.10
2023-05-23T12:01:37.267Z,1.00
2023-05-23T12:04:14.061Z,1.10
2023-05-23T12:06:41.900Z,1.53
2023-05-23T12:09:11.828Z,2.07
2023-05-23T12:11:40.607Z,1.13
2023-05-23T12:14:07.999Z,1.37
2023-05-23T12:16:36.110Z,0.90
2023-05-23T12:19:05.454Z,1.50
2023-05-23T12:21:47.396Z,0.90
2023-05-23T12:24:15.862Z,1.20
2023-05-23T12:26:50.017Z,0.90
2023-05-23T12:29:19.338Z,1.20
2023-05-23T12:31:49.343Z,1.10
2023-05-23T12:34:16.998Z,1.87
2023-05-23T12:36:49.448Z,3.63
2023-05-23T12:39:24.908Z,1.07
2023-05-23T12:41:52.222Z,1.37
2023-05-23T12:44:19.475Z,1.50
2023-05-23T12:46:46.876Z,1.83
2023-05-23T12:49:14.274Z,0.63
2023-05-23T12:51:41.665Z,1.13
2023-05-23T12:54:10.286Z,1.00
2023-05-23T12:56:38.046Z,1.37
2023-05-23T12:59:05.383Z,1.40
2023-05-23T13:01:32.792Z,1.00
2023-05-23T13:04:00.183Z,0.97
2023-05-23T13:06:27.858Z,1.03
2023-05-23T13:08:55.170Z,1.70
2023-05-23T13:11:24.251Z,0.70
2023-05-23T13:13:51.535Z,0.90
2023-05-23T13:16:19.081Z,0.97
2023-05-23T13:18:46.522Z,1.60
2023-05-23T13:21:13.920Z,1.60
2023-05-23T13:23:41.288Z,1.10
2023-05-23T13:26:08.689Z,1.17
2023-05-23T13:28:37.307Z,0.90
2023-05-23T13:31:05.533Z,0.70
2023-05-23T13:33:32.907Z,1.57
2023-05-23T13:36:00.298Z,2.00
2023-05-23T13:38:27.595Z,1.37
2023-05-23T13:40:55.131Z,1.10
2023-05-23T13:43:22.413Z,1.27
2023-05-23T13:45:51.089Z,1.77
2023-05-23T13:48:18.400Z,1.20
2023-05-23T13:50:46.112Z,1.00
2023-05-23T13:53:13.458Z,1.63
2023-05-23T13:55:41.133Z,1.13
2023-05-23T13:58:08.481Z,1.20
2023-05-23T14:00:35.830Z,1.20
2023-05-23T14:03:04.649Z,1.00
2023-05-23T14:05:32.081Z,1.40
2023-05-23T14:07:59.379Z,1.10
2023-05-23T14:10:26.976Z,1.40
2023-05-23T14:12:54.410Z,0.93
2023-05-23T14:15:21.873Z,1.03
2023-05-23T14:17:49.328Z,1.30
2023-05-23T14:20:18.094Z,1.10
2023-05-23T14:22:45.360Z,1.03
2023-05-23T14:25:12.943Z,0.90
2023-05-23T14:27:40.214Z,0.73
2023-05-23T14:30:07.930Z,1.17
2023-05-23T14:32:35.260Z,1.00
2023-05-23T14:35:02.644Z,0.90
2023-05-23T14:37:31.270Z,0.90
2023-05-23T14:39:58.644Z,1.30
2023-05-23T14:42:25.873Z,0.80
2023-05-23T14:44:53.786Z,1.43
2023-05-23T14:47:21.374Z,1.20
2023-05-23T14:49:48.689Z,0.60
2023-05-23T14:52:17.249Z,0.90
2023-05-23T14:54:46.031Z,1.37
2023-05-23T14:57:13.331Z,0.97
2023-05-23T14:59:41.048Z,1.10
2023-05-23T15:02:08.738Z,1.00
2023-05-23T15:04:36.934Z,0.80
2023-05-23T15:07:04.381Z,0.80
2023-05-23T15:09:31.725Z,0.87
2023-05-23T15:12:00.454Z,1.30
2023-05-23T15:14:27.723Z,1.17
2023-05-23T15:16:55.399Z,0.90
2023-05-23T15:19:22.811Z,1.03
2023-05-23T15:21:51.781Z,1.20
2023-05-23T15:24:19.490Z,1.07
2023-05-23T15:26:46.746Z,0.50
2023-05-23T15:29:15.508Z,1.20
2023-05-23T15:31:42.837Z,1.50
2023-05-23T15:34:10.464Z,0.67
2023-05-23T15:36:39.688Z,0.87
2023-05-23T15:39:07.113Z,1.00
2023-05-23T15:41:34.412Z,0.97
2023-05-23T15:44:01.869Z,0.70
2023-05-23T15:46:33.557Z,1.43
2023-05-23T15:49:07.491Z,1.30
2023-05-23T15:51:41.230Z,0.73
2023-05-23T15:54:08.508Z,0.77
2023-05-23T15:56:36.124Z,1.03
2023-05-23T15:59:03.532Z,1.30
2023-05-23T16:01:30.885Z,1.10
2023-05-23T16:03:59.667Z,1.10
2023-05-23T16:06:27.081Z,1.00
2023-05-23T16:08:54.410Z,1.20
2023-05-23T16:11:21.933Z,0.67
2023-05-23T16:13:49.310Z,0.97
2023-05-23T16:16:17.275Z,1.23
2023-05-23T16:18:44.744Z,1.00
2023-05-23T16:21:13.457Z,0.90
2023-05-23T16:23:40.666Z,1.13
2023-05-23T16:26:07.963Z,0.70
2023-05-23T16:28:35.358Z,0.70
2023-05-23T16:31:03.192Z,0.73
2023-05-23T16:33:30.413Z,0.43
2023-05-23T16:35:57.714Z,1.63
2023-05-23T16:38:26.319Z,1.00
2023-05-23T16:40:53.929Z,1.00
2023-05-23T16:43:21.285Z,0.87
2023-05-23T16:45:48.812Z,1.00
2023-05-23T16:48:17.201Z,1.00
2023-05-23T16:50:44.694Z,0.70
2023-05-23T16:53:12.186Z,0.70
2023-05-23T16:55:41.326Z,1.13
2023-05-23T16:58:08.899Z,0.80
2023-05-23T17:00:36.686Z,1.00
2023-05-23T17:03:04.598Z,0.80
2023-05-23T17:05:33.054Z,0.83
2023-05-23T17:08:01.430Z,0.93
2023-05-23T17:10:28.837Z,0.83
2023-05-23T17:12:57.591Z,0.50
2023-05-23T17:15:25.600Z,0.80
2023-05-23T17:17:53.195Z,0.40
2023-05-23T17:20:20.713Z,0.43
2023-05-23T17:22:48.093Z,0.40
2023-05-23T17:25:15.556Z,1.07
2023-05-23T17:27:43.061Z,1.37
2023-05-23T17:30:13.084Z,0.80
2023-05-23T17:32:40.477Z,0.70
2023-05-23T17:35:08.635Z,0.60
2023-05-23T17:37:36.406Z,1.30
2023-05-23T17:40:04.620Z,1.00
2023-05-23T17:42:32.200Z,0.63
2023-05-23T17:45:00.484Z,0.63
2023-05-23T17:47:29.429Z,0.70
2023-05-23T17:49:56.748Z,1.70
2023-05-23T17:52:24.175Z,1.53
2023-05-23T17:54:51.500Z,0.87
2023-05-23T17:57:18.843Z,2.40
2023-05-23T17:59:46.263Z,0.60
2023-05-23T18:02:14.042Z,1.03
2023-05-23T18:04:43.089Z,1.00
2023-05-23T18:07:12.257Z,0.93
2023-05-23T18:09:39.583Z,1.00
2023-05-23T18:12:07.170Z,1.30
2023-05-23T18:14:35.448Z,0.50
2023-05-23T18:17:02.882Z,3.13
2023-05-23T18:19:30.360Z,1.27
2023-05-23T18:21:59.041Z,0.70
2023-05-23T18:24:26.423Z,1.30
2023-05-23T18:26:53.765Z,1.03
2023-05-23T18:29:21.326Z,1.00
2023-05-23T18:31:48.652Z,0.97
2023-05-23T18:34:16.130Z,1.93
2023-05-23T18:36:43.646Z,7.80
2023-05-23T18:39:12.355Z,2.40
2023-05-23T18:41:39.901Z,0.73
2023-05-23T18:44:07.275Z,0.40
2023-05-23T18:46:34.688Z,0.60
2023-05-23T18:49:02.133Z,0.40
2023-05-23T18:51:29.462Z,1.57
2023-05-23T18:53:58.342Z,0.87
2023-05-23T18:56:27.053Z,0.50
2023-05-23T18:58:54.422Z,1.53
2023-05-23T19:01:21.888Z,0.50
2023-05-23T19:03:49.462Z,0.60
2023-05-23T19:06:16.846Z,0.73
2023-05-23T19:08:44.168Z,0.60
2023-05-23T19:11:11.520Z,0.60
2023-05-23T19:13:40.512Z,0.80
2023-05-23T19:16:07.851Z,1.03
2023-05-23T19:18:35.465Z,0.47
2023-05-23T19:21:03.485Z,0.50
2023-05-23T19:23:30.885Z,1.23
2023-05-23T19:25:58.198Z,1.00
2023-05-23T19:28:25.619Z,3.03
2023-05-23T19:30:56.892Z,0.60
2023-05-23T19:33:24.497Z,1.30
2023-05-23T19:35:51.704Z,1.20
2023-05-23T19:38:19.215Z,0.77
2023-05-23T19:40:46.825Z,1.40
2023-05-23T19:43:14.314Z,0.47
2023-05-23T19:45:41.887Z,0.37
2023-05-23T19:48:10.745Z,0.93
2023-05-23T19:50:38.139Z,0.67
2023-05-23T19:53:05.580Z,0.40
2023-05-23T19:55:33.023Z,1.00
2023-05-23T19:58:00.356Z,0.80
2023-05-23T20:00:27.714Z,1.27
2023-05-23T20:02:56.100Z,1.07
2023-05-23T20:05:24.782Z,1.20
2023-05-23T20:07:52.243Z,0.70
2023-05-23T20:10:19.744Z,0.77
2023-05-23T20:12:47.040Z,1.03
2023-05-23T20:15:15.916Z,0.90
2023-05-23T20:17:45.419Z,0.80
2023-05-23T20:20:12.789Z,0.80
2023-05-23T20:22:41.561Z,0.63
2023-05-23T20:25:09.294Z,0.97
2023-05-23T20:27:36.768Z,23.83
2023-05-23T20:30:06.263Z,0.77
2023-05-23T20:32:33.612Z,0.70
2023-05-23T20:35:00.875Z,1.13
2023-05-23T20:37:28.263Z,0.53
2023-05-23T20:39:56.926Z,0.80
2023-05-23T20:42:24.286Z,0.83
2023-05-23T20:44:51.526Z,0.90
2023-05-23T20:47:19.094Z,2.93
2023-05-23T20:49:46.395Z,1.10
2023-05-23T20:52:15.048Z,1.23
2023-05-23T20:54:42.381Z,2.53
2023-05-23T20:57:13.910Z,1.63
2023-05-23T20:59:41.318Z,0.63
2023-05-23T21:02:09.267Z,0.93
2023-05-23T21:04:36.703Z,1.17
2023-05-23T21:07:04.425Z,1.60
2023-05-23T21:09:31.704Z,14.80
2023-05-23T21:12:08.962Z,2.07
2023-05-23T21:14:37.691Z,1.17
2023-05-23T21:17:05.014Z,1.53
2023-05-23T21:19:32.561Z,0.77
2023-05-23T21:22:00.029Z,1.90
2023-05-23T21:24:27.420Z,1.10
2023-05-23T21:26:54.671Z,1.57
2023-05-23T21:29:22.040Z,1.50
2023-05-23T21:31:50.811Z,2.07
2023-05-23T21:34:23.908Z,1.33
2023-05-23T21:36:51.975Z,1.27
2023-05-23T21:39:19.600Z,1.20
2023-05-23T21:41:47.220Z,1.23
2023-05-23T21:44:14.656Z,1.33
2023-05-23T21:46:41.985Z,1.03
2023-05-23T21:49:10.674Z,1.43
2023-05-23T21:51:38.078Z,0.60
2023-05-23T21:54:05.845Z,1.53
2023-05-23T21:56:33.186Z,2.90
2023-05-23T21:59:00.447Z,1.00
2023-05-23T22:01:27.868Z,1.17
2023-05-23T22:03:55.250Z,0.80
2023-05-23T22:06:24.083Z,1.60
2023-05-23T22:08:51.375Z,0.83
2023-05-23T22:11:19.060Z,1.00
2023-05-23T22:13:46.348Z,1.03
2023-05-23T22:16:13.756Z,2.00
2023-05-23T22:18:51.025Z,0.70
2023-05-23T22:21:19.792Z,0.90
2023-05-23T22:23:48.545Z,1.13
2023-05-23T22:26:15.998Z,0.70
2023-05-23T22:28:43.371Z,2.00
2023-05-23T22:31:12.892Z,1.10
2023-05-23T22:33:41.003Z,0.90
2023-05-23T22:36:09.176Z,1.77
2023-05-23T22:38:36.564Z,1.33
2023-05-23T22:41:05.298Z,0.70
2023-05-23T22:43:32.708Z,2.63
2023-05-23T22:46:00.182Z,1.30
2023-05-23T22:48:27.459Z,0.90
2023-05-23T22:50:54.825Z,1.17
2023-05-23T22:53:22.104Z,0.70
2023-05-23T22:55:49.864Z,1.87
2023-05-23T22:58:18.552Z,1.37
2023-05-23T23:00:45.952Z,1.50
2023-05-23T23:03:13.626Z,1.60
2023-05-23T23:05:41.168Z,1.27
2023-05-23T23:08:08.408Z,1.90
2023-05-23T23:10:35.816Z,1.90
2023-05-23T23:13:03.226Z,0.90
2023-05-23T23:15:31.962Z,2.30
2023-05-23T23:17:59.694Z,1.10
2023-05-23T23:20:27.309Z,0.63
2023-05-23T23:22:54.790Z,0.60
2023-05-23T23:25:22.323Z,1.70
2023-05-23T23:27:49.711Z,2.23
2023-05-23T23:30:17.473Z,2.07
2023-05-23T23:32:46.118Z,1.33
2023-05-23T23:35:13.748Z,1.60
2023-05-23T23:37:41.062Z,1.30
2023-05-23T23:40:09.337Z,1.00
2023-05-23T23:42:36.892Z,1.57
2023-05-23T23:45:05.128Z,1.20
2023-05-23T23:47:32.681Z,1.07
2023-05-23T23:50:01.563Z,0.90
2023-05-23T23:52:28.957Z,1.50
2023-05-23T23:54:56.503Z,1.90
2023-05-23T23:57:27.515Z,0.77
2023-05-23T23:59:55.002Z,2.00
